createdAt,value
2023-02-02T00:03:32.277Z,5.6
2023-02-02T00:13:32.217Z,5.7
2023-02-02T00:23:32.193Z,5.7
2023-02-02T00:33:32.181Z,5.6
2023-02-02T00:43:32.639Z,5.4
2023-02-02T00:53:32.186Z,5.6
2023-02-02T01:03:32.603Z,5.6
2023-02-02T01:13:34.077Z,5.4
2023-02-02T01:23:32.150Z,5.4
2023-02-02T01:33:37.195Z,5.4
2023-02-02T01:43:32.557Z,5.5
2023-02-02T01:53:32.153Z,5.4
2023-02-02T02:03:32.134Z,5.3
2023-02-02T02:13:32.114Z,5
2023-02-02T02:23:32.103Z,4.7
2023-02-02T02:33:32.105Z,4.6
2023-02-02T02:43:32.076Z,4.5
2023-02-02T02:53:32.160Z,4.4
2023-02-02T03:03:32.099Z,4.2
2023-02-02T03:13:32.098Z,4
2023-02-02T03:23:32.472Z,3.9
2023-02-02T03:33:32.079Z,3.9
2023-02-02T03:43:32.048Z,4
2023-02-02T03:53:32.041Z,3.8
2023-02-02T04:03:37.092Z,3.7
2023-02-02T04:13:32.029Z,3.6
2023-02-02T04:23:32.062Z,3.6
2023-02-02T04:33:32.033Z,3.6
2023-02-02T04:43:32.019Z,3.8
2023-02-02T04:53:32.012Z,3.6
2023-02-02T05:03:37.058Z,3.6
2023-02-02T05:13:32.184Z,3.2
2023-02-02T05:23:31.993Z,3.1
2023-02-02T05:33:31.982Z,3.1
2023-02-02T05:43:32.030Z,2.9
2023-02-02T05:53:31.992Z,3.1
2023-02-02T06:03:37.142Z,3.2
2023-02-02T06:13:31.967Z,3.1
2023-02-02T06:23:31.951Z,3.2
2023-02-02T06:33:31.947Z,3.6
2023-02-02T06:43:36.975Z,3.3
2023-02-02T06:53:32.207Z,3.1
2023-02-02T07:03:31.955Z,3.2
2023-02-02T07:13:31.917Z,3.2
2023-02-02T07:23:31.917Z,3.1
2023-02-02T07:33:31.893Z,3.1
2023-02-02T07:43:31.908Z,3.1
2023-02-02T07:53:32.324Z,4.2
2023-02-02T08:03:36.942Z,5
2023-02-02T08:13:31.968Z,5.5
2023-02-02T08:23:31.855Z,6
2023-02-02T08:33:31.880Z,6.7
2023-02-02T08:43:32.257Z,7.3
2023-02-02T08:53:31.839Z,8.9
2023-02-02T09:03:31.821Z,9.5
2023-02-02T09:13:31.806Z,10.2
2023-02-02T09:23:31.819Z,12.7
2023-02-02T09:33:31.793Z,12.5
2023-02-02T09:43:31.780Z,12.5
2023-02-02T09:53:31.777Z,12.1
2023-02-02T10:03:31.847Z,12.7
2023-02-02T10:13:31.754Z,11.9
2023-02-02T10:23:32.138Z,11.7
2023-02-02T10:33:32.128Z,13.2
2023-02-02T10:43:31.696Z,15.2
2023-02-02T10:53:32.083Z,16.5
2023-02-02T11:03:31.692Z,16.9
2023-02-02T11:13:31.680Z,17.2
2023-02-02T11:23:31.613Z,18
2023-02-02T11:33:31.620Z,17.4
2023-02-02T11:43:31.591Z,18.1
2023-02-02T11:53:31.594Z,17.3
2023-02-02T12:03:31.546Z,16.5
2023-02-02T12:13:31.551Z,15.5
2023-02-02T12:23:31.536Z,15.8
2023-02-02T12:33:31.522Z,14.6
2023-02-02T12:43:31.502Z,13.3
2023-02-02T12:53:31.508Z,12.4
2023-02-02T13:03:31.475Z,11.9
2023-02-02T13:13:31.487Z,13.8
2023-02-02T13:23:31.449Z,14.4
2023-02-02T13:33:31.419Z,13.4
2023-02-02T13:43:31.407Z,13.7
2023-02-02T13:53:31.411Z,14.3
2023-02-02T14:03:31.385Z,13.8
2023-02-02T14:13:31.400Z,12.9
2023-02-02T14:23:31.353Z,12.2
2023-02-02T14:33:31.364Z,11.8
2023-02-02T14:43:31.331Z,11.6
2023-02-02T14:53:31.304Z,11.2
2023-02-02T15:03:31.315Z,10.9
2023-02-02T15:13:31.729Z,10.8
2023-02-02T15:23:31.295Z,10.6
2023-02-02T15:33:31.306Z,10.7
2023-02-02T15:43:31.683Z,11.2
2023-02-02T15:53:31.259Z,10.4
2023-02-02T16:03:31.678Z,9.8
2023-02-02T16:13:31.210Z,9.5
2023-02-02T16:23:31.237Z,9.3
2023-02-02T16:33:31.214Z,9.1
2023-02-02T16:43:31.180Z,9
2023-02-02T16:53:31.207Z,8.9
2023-02-02T17:03:31.158Z,8.8
2023-02-02T17:13:31.169Z,8.7
2023-02-02T17:23:31.160Z,8.6
2023-02-02T17:33:34.010Z,8.4
2023-02-02T17:43:31.113Z,8.3
2023-02-02T17:53:33.182Z,8.3
2023-02-02T18:03:33.730Z,8.2
2023-02-02T18:13:31.082Z,8.1
2023-02-02T18:23:31.086Z,8
2023-02-02T18:33:31.494Z,8
2023-02-02T18:43:31.072Z,8
2023-02-02T18:53:31.076Z,7.8
2023-02-02T19:03:31.086Z,7.7
2023-02-02T19:13:31.447Z,7.8
2023-02-02T19:23:31.064Z,7.8
2023-02-02T19:33:31.015Z,7.7
2023-02-02T19:43:31.015Z,7.7
2023-02-02T19:53:31.002Z,7.6
2023-02-02T20:03:30.995Z,7.6
2023-02-02T20:13:30.959Z,7.5
2023-02-02T20:23:31.392Z,7.6
2023-02-02T20:33:30.972Z,7.5
2023-02-02T20:43:31.369Z,7.4
2023-02-02T20:53:30.955Z,7.4
2023-02-02T21:03:30.929Z,7.2
2023-02-02T21:13:31.358Z,7.1
2023-02-02T21:23:30.932Z,7
2023-02-02T21:33:30.883Z,6.9
2023-02-02T21:43:30.882Z,6.8
2023-02-02T21:53:30.877Z,6.6
2023-02-02T22:03:30.915Z,6.2
2023-02-02T22:13:31.281Z,5.9
2023-02-02T22:23:30.844Z,5.5
2023-02-02T22:33:30.838Z,5.4
2023-02-02T22:43:30.849Z,5.1
2023-02-02T22:53:30.840Z,5
2023-02-02T23:03:30.857Z,5
2023-02-02T23:13:30.811Z,4.7
2023-02-02T23:23:30.801Z,4.5
2023-02-02T23:33:30.776Z,4.3
2023-02-02T23:43:30.787Z,4.2
2023-02-02T23:53:30.763Z,4.1
